Aérodrome :
LOGIN :

S'inscrire | Disclaimer

   EN    FR    IT 

 










Légende :    VFR   VFR Marginal   IFR   IFR Intensif   IFR Très Intensif
Visi : 
Plafond : 
>= 8 km
>= 3000ft
5 à 8 km
1000 à 3000 ft
1500m à 5 km
500 à 1000 ft
800 à 1500m
200 à 500 ft
< 800m
< 200 ft
Symboles :   Orages  Brouillard  Fortes neiges  Fortes précipitations  Vent > 20 kt
SIGMETs :   Divers  Orages  Givrage  Turbulence  Onde Orograph.  Cendres Volcan.






- Altitude de l'aérodrome : 0 ft


ENQA - Troll A Platform

DERNIER METAR :
  • 030120Z AUTO 34039KT 9999NDV -SHRA BKN022/// BKN120/// 02/M04 Q0996 RESHRA W02/S6

METARs EXPIRÉS :
  • 030050Z AUTO 35038KT 9000NDV -SHRA BKN026/// BKN034/// 02/M04 Q0996 W02/S7
  • 022320Z AUTO 33033KT 9999NDV SCT015/// BKN091/// 02/M03 Q0995 W03/S7
  • 022250Z AUTO 36029KT 9000NDV -RASN OVC031/// 02/M01 Q0995 W03/S7

TAF N/A



MET'MAP, la Météo Aéronautique d'un coup d'oeil ! - Copyright ORBIFLY Décembre 2007 - Disclaimer

ORBIFLY MET'MAP TEAM :

Programmation & Développement : Alexandra Zaïnal
Sur une idée originale de : Baudouin d'Aumeries
Assistance à la programmation : Marc-Olivier Méhu
Soutien technique & logistique : Manuel Goepfert

Contact : metmap@orbifly.com




SOURCES & CREDITS :

   NOAA